<?xml version="1.0" encoding="utf-8" standalone="no" ?>
<gpx xmlns="http://www.topografix.com/GPX/1/1" creator="Tracker" version="1.1" xmlns:xsi="http://www.w3.org/2001/XMLSchema-instance" xsi:schemaLocation="http://www.topografix.com/GPX/1/1 http://www.topografix.com/GPX/1/1/gpx.xsd">
  <metadata>
    <time>2010-03-14T14:51:32Z</time>
  </metadata>
  <trk>
    <trkseg>
      <trkpt lat="49.975500" lon="8.081660">
        <time>2010-03-14T13:50:57Z</time>
      </trkpt>
      <trkpt lat="49.975500" lon="8.081660">
        <time>2010-03-14T13:51:08Z</time>
      </trkpt>
      <trkpt lat="49.975500" lon="8.081660">
        <time>2010-03-14T13:51:32Z</time>
      </trkpt>
      <trkpt lat="49.975540" lon="8.082110">
        <time>2010-03-14T13:51:38Z</time>
      </trkpt>
      <trkpt lat="49.975570" lon="8.082240">
        <time>2010-03-14T13:51:46Z</time>
      </trkpt>
      <trkpt lat="49.975570" lon="8.082240">
        <time>2010-03-14T13:51:50Z</time>
      </trkpt>
      <trkpt lat="49.975570" lon="8.082240">
        <time>2010-03-14T13:51:52Z</time>
      </trkpt>
      <trkpt lat="49.975570" lon="8.082240">
        <time>2010-03-14T13:52:00Z</time>
      </trkpt>
      <trkpt lat="49.975590" lon="8.082430">
        <time>2010-03-14T13:52:04Z</time>
      </trkpt>
      <trkpt lat="49.975590" lon="8.082430">
        <time>2010-03-14T13:52:12Z</time>
      </trkpt>
      <trkpt lat="49.975590" lon="8.082430">
        <time>2010-03-14T13:52:14Z</time>
      </trkpt>
      <trkpt lat="49.975590" lon="8.082430">
        <time>2010-03-14T13:52:20Z</time>
      </trkpt>
      <trkpt lat="49.975660" lon="8.082910">
        <time>2010-03-14T13:52:26Z</time>
      </trkpt>
      <trkpt lat="49.975660" lon="8.082950">
        <time>2010-03-14T13:52:32Z</time>
      </trkpt>
      <trkpt lat="49.975660" lon="8.082950">
        <time>2010-03-14T13:52:38Z</time>
      </trkpt>
      <trkpt lat="49.975660" lon="8.082950">
        <time>2010-03-14T13:52:40Z</time>
      </trkpt>
      <trkpt lat="49.975740" lon="8.083190">
        <time>2010-03-14T13:52:44Z</time>
      </trkpt>
      <trkpt lat="49.975750" lon="8.083230">
        <time>2010-03-14T13:52:52Z</time>
      </trkpt>
      <trkpt lat="49.975750" lon="8.083230">
        <time>2010-03-14T13:52:56Z</time>
      </trkpt>
      <trkpt lat="49.975750" lon="8.083230">
        <time>2010-03-14T13:53:00Z</time>
      </trkpt>
      <trkpt lat="49.975830" lon="8.083490">
        <time>2010-03-14T13:53:04Z</time>
      </trkpt>
      <trkpt lat="49.975920" lon="8.083740">
        <time>2010-03-14T13:53:16Z</time>
      </trkpt>
      <trkpt lat="49.975980" lon="8.084020">
        <time>2010-03-14T13:53:30Z</time>
      </trkpt>
      <trkpt lat="49.976080" lon="8.084280">
        <time>2010-03-14T13:53:44Z</time>
      </trkpt>
      <trkpt lat="49.976170" lon="8.084300">
        <time>2010-03-14T13:53:48Z</time>
      </trkpt>
      <trkpt lat="49.976310" lon="8.084320">
        <time>2010-03-14T13:53:58Z</time>
      </trkpt>
      <trkpt lat="49.976360" lon="8.084300">
        <time>2010-03-14T13:54:02Z</time>
      </trkpt>
      <trkpt lat="49.976390" lon="8.084340">
        <time>2010-03-14T13:54:06Z</time>
      </trkpt>
      <trkpt lat="49.976390" lon="8.084340">
        <time>2010-03-14T13:54:14Z</time>
      </trkpt>
      <trkpt lat="49.976390" lon="8.084340">
        <time>2010-03-14T13:54:16Z</time>
      </trkpt>
      <trkpt lat="49.976400" lon="8.084370">
        <time>2010-03-14T13:54:18Z</time>
      </trkpt>
      <trkpt lat="49.976400" lon="8.084370">
        <time>2010-03-14T13:54:24Z</time>
      </trkpt>
      <trkpt lat="49.976400" lon="8.084370">
        <time>2010-03-14T13:54:26Z</time>
      </trkpt>
      <trkpt lat="49.976450" lon="8.084750">
        <time>2010-03-14T13:54:30Z</time>
      </trkpt>
      <trkpt lat="49.976490" lon="8.084920">
        <time>2010-03-14T13:54:38Z</time>
      </trkpt>
      <trkpt lat="49.976550" lon="8.085180">
        <time>2010-03-14T13:54:54Z</time>
      </trkpt>
      <trkpt lat="49.976550" lon="8.085180">
        <time>2010-03-14T13:54:56Z</time>
      </trkpt>
      <trkpt lat="49.976620" lon="8.085350">
        <time>2010-03-14T13:55:00Z</time>
      </trkpt>
      <trkpt lat="49.976660" lon="8.085480">
        <time>2010-03-14T13:55:08Z</time>
      </trkpt>
      <trkpt lat="49.976750" lon="8.085760">
        <time>2010-03-14T13:55:22Z</time>
      </trkpt>
      <trkpt lat="49.976840" lon="8.086040">
        <time>2010-03-14T13:55:38Z</time>
      </trkpt>
      <trkpt lat="49.976910" lon="8.086380">
        <time>2010-03-14T13:55:56Z</time>
      </trkpt>
      <trkpt lat="49.976930" lon="8.086490">
        <time>2010-03-14T13:56:06Z</time>
      </trkpt>
      <trkpt lat="49.976940" lon="8.086660">
        <time>2010-03-14T13:56:10Z</time>
      </trkpt>
      <trkpt lat="49.976970" lon="8.086830">
        <time>2010-03-14T13:56:18Z</time>
      </trkpt>
      <trkpt lat="49.976970" lon="8.086940">
        <time>2010-03-14T13:56:28Z</time>
      </trkpt>
      <trkpt lat="49.976970" lon="8.086940">
        <time>2010-03-14T13:56:30Z</time>
      </trkpt>
      <trkpt lat="49.976970" lon="8.086940">
        <time>2010-03-14T13:56:32Z</time>
      </trkpt>
      <trkpt lat="49.976970" lon="8.086940">
        <time>2010-03-14T13:56:36Z</time>
      </trkpt>
      <trkpt lat="49.976920" lon="8.087110">
        <time>2010-03-14T13:56:40Z</time>
      </trkpt>
      <trkpt lat="49.976860" lon="8.087240">
        <time>2010-03-14T13:56:46Z</time>
      </trkpt>
      <trkpt lat="49.976770" lon="8.087500">
        <time>2010-03-14T13:56:58Z</time>
      </trkpt>
      <trkpt lat="49.976760" lon="8.087650">
        <time>2010-03-14T13:57:08Z</time>
      </trkpt>
      <trkpt lat="49.976760" lon="8.087650">
        <time>2010-03-14T13:57:10Z</time>
      </trkpt>
      <trkpt lat="49.976760" lon="8.087710">
        <time>2010-03-14T13:57:12Z</time>
      </trkpt>
      <trkpt lat="49.976740" lon="8.087890">
        <time>2010-03-14T13:57:20Z</time>
      </trkpt>
      <trkpt lat="49.976620" lon="8.088440">
        <time>2010-03-14T13:57:46Z</time>
      </trkpt>
      <trkpt lat="49.976590" lon="8.088570">
        <time>2010-03-14T13:57:56Z</time>
      </trkpt>
      <trkpt lat="49.976540" lon="8.088790">
        <time>2010-03-14T13:58:08Z</time>
      </trkpt>
      <trkpt lat="49.976460" lon="8.089090">
        <time>2010-03-14T13:58:22Z</time>
      </trkpt>
      <trkpt lat="49.976460" lon="8.089170">
        <time>2010-03-14T13:58:24Z</time>
      </trkpt>
      <trkpt lat="49.976420" lon="8.089280">
        <time>2010-03-14T13:58:32Z</time>
      </trkpt>
      <trkpt lat="49.976310" lon="8.089520">
        <time>2010-03-14T13:58:48Z</time>
      </trkpt>
      <trkpt lat="49.976270" lon="8.089710">
        <time>2010-03-14T13:59:02Z</time>
      </trkpt>
      <trkpt lat="49.976230" lon="8.089900">
        <time>2010-03-14T13:59:12Z</time>
      </trkpt>
      <trkpt lat="49.976160" lon="8.090160">
        <time>2010-03-14T13:59:28Z</time>
      </trkpt>
      <trkpt lat="49.976070" lon="8.090310">
        <time>2010-03-14T13:59:38Z</time>
      </trkpt>
      <trkpt lat="49.975990" lon="8.090480">
        <time>2010-03-14T13:59:52Z</time>
      </trkpt>
      <trkpt lat="49.975860" lon="8.090670">
        <time>2010-03-14T14:00:08Z</time>
      </trkpt>
      <trkpt lat="49.975740" lon="8.090820">
        <time>2010-03-14T14:00:18Z</time>
      </trkpt>
      <trkpt lat="49.975610" lon="8.090950">
        <time>2010-03-14T14:00:32Z</time>
      </trkpt>
      <trkpt lat="49.975570" lon="8.091000">
        <time>2010-03-14T14:00:34Z</time>
      </trkpt>
      <trkpt lat="49.975430" lon="8.091100">
        <time>2010-03-14T14:00:44Z</time>
      </trkpt>
      <trkpt lat="49.975250" lon="8.091280">
        <time>2010-03-14T14:01:00Z</time>
      </trkpt>
      <trkpt lat="49.975150" lon="8.091450">
        <time>2010-03-14T14:01:12Z</time>
      </trkpt>
      <trkpt lat="49.975070" lon="8.091620">
        <time>2010-03-14T14:01:26Z</time>
      </trkpt>
      <trkpt lat="49.974970" lon="8.091790">
        <time>2010-03-14T14:01:40Z</time>
      </trkpt>
      <trkpt lat="49.974840" lon="8.091980">
        <time>2010-03-14T14:01:54Z</time>
      </trkpt>
      <trkpt lat="49.974720" lon="8.092110">
        <time>2010-03-14T14:02:08Z</time>
      </trkpt>
      <trkpt lat="49.974580" lon="8.092220">
        <time>2010-03-14T14:02:20Z</time>
      </trkpt>
      <trkpt lat="49.974470" lon="8.092350">
        <time>2010-03-14T14:02:32Z</time>
      </trkpt>
      <trkpt lat="49.974340" lon="8.092500">
        <time>2010-03-14T14:02:42Z</time>
      </trkpt>
      <trkpt lat="49.974150" lon="8.092760">
        <time>2010-03-14T14:03:00Z</time>
      </trkpt>
      <trkpt lat="49.973950" lon="8.092990">
        <time>2010-03-14T14:03:16Z</time>
      </trkpt>
      <trkpt lat="49.973770" lon="8.093210">
        <time>2010-03-14T14:03:32Z</time>
      </trkpt>
      <trkpt lat="49.973600" lon="8.093380">
        <time>2010-03-14T14:03:48Z</time>
      </trkpt>
      <trkpt lat="49.973600" lon="8.093380">
        <time>2010-03-14T14:03:52Z</time>
      </trkpt>
      <trkpt lat="49.973500" lon="8.093530">
        <time>2010-03-14T14:03:56Z</time>
      </trkpt>
      <trkpt lat="49.973270" lon="8.093850">
        <time>2010-03-14T14:04:16Z</time>
      </trkpt>
      <trkpt lat="49.973240" lon="8.093980">
        <time>2010-03-14T14:04:22Z</time>
      </trkpt>
      <trkpt lat="49.973230" lon="8.094240">
        <time>2010-03-14T14:04:34Z</time>
      </trkpt>
      <trkpt lat="49.973180" lon="8.094340">
        <time>2010-03-14T14:04:40Z</time>
      </trkpt>
      <trkpt lat="49.973130" lon="8.094370">
        <time>2010-03-14T14:04:44Z</time>
      </trkpt>
      <trkpt lat="49.973040" lon="8.094430">
        <time>2010-03-14T14:04:56Z</time>
      </trkpt>
      <trkpt lat="49.972920" lon="8.094520">
        <time>2010-03-14T14:05:06Z</time>
      </trkpt>
      <trkpt lat="49.972740" lon="8.094640">
        <time>2010-03-14T14:05:18Z</time>
      </trkpt>
      <trkpt lat="49.972630" lon="8.094730">
        <time>2010-03-14T14:05:30Z</time>
      </trkpt>
      <trkpt lat="49.972530" lon="8.094840">
        <time>2010-03-14T14:05:38Z</time>
      </trkpt>
      <trkpt lat="49.972380" lon="8.094970">
        <time>2010-03-14T14:05:52Z</time>
      </trkpt>
      <trkpt lat="49.972030" lon="8.095220">
        <time>2010-03-14T14:06:22Z</time>
      </trkpt>
      <trkpt lat="49.972010" lon="8.095250">
        <time>2010-03-14T14:06:28Z</time>
      </trkpt>
      <trkpt lat="49.972010" lon="8.095250">
        <time>2010-03-14T14:06:36Z</time>
      </trkpt>
      <trkpt lat="49.972010" lon="8.095250">
        <time>2010-03-14T14:06:42Z</time>
      </trkpt>
      <trkpt lat="49.972010" lon="8.095250">
        <time>2010-03-14T14:06:56Z</time>
      </trkpt>
      <trkpt lat="49.971760" lon="8.095440">
        <time>2010-03-14T14:07:02Z</time>
      </trkpt>
      <trkpt lat="49.971460" lon="8.095670">
        <time>2010-03-14T14:07:18Z</time>
      </trkpt>
      <trkpt lat="49.971340" lon="8.095760">
        <time>2010-03-14T14:07:28Z</time>
      </trkpt>
      <trkpt lat="49.971120" lon="8.095970">
        <time>2010-03-14T14:07:48Z</time>
      </trkpt>
      <trkpt lat="49.971000" lon="8.096150">
        <time>2010-03-14T14:07:58Z</time>
      </trkpt>
      <trkpt lat="49.970930" lon="8.096380">
        <time>2010-03-14T14:08:08Z</time>
      </trkpt>
      <trkpt lat="49.970860" lon="8.096770">
        <time>2010-03-14T14:08:26Z</time>
      </trkpt>
      <trkpt lat="49.970860" lon="8.097000">
        <time>2010-03-14T14:08:38Z</time>
      </trkpt>
      <trkpt lat="49.970890" lon="8.097330">
        <time>2010-03-14T14:08:52Z</time>
      </trkpt>
      <trkpt lat="49.970920" lon="8.097820">
        <time>2010-03-14T14:09:16Z</time>
      </trkpt>
      <trkpt lat="49.970900" lon="8.097860">
        <time>2010-03-14T14:09:22Z</time>
      </trkpt>
      <trkpt lat="49.970860" lon="8.097860">
        <time>2010-03-14T14:09:26Z</time>
      </trkpt>
      <trkpt lat="49.970780" lon="8.097860">
        <time>2010-03-14T14:09:32Z</time>
      </trkpt>
      <trkpt lat="49.970640" lon="8.097880">
        <time>2010-03-14T14:09:38Z</time>
      </trkpt>
      <trkpt lat="49.970460" lon="8.097930">
        <time>2010-03-14T14:09:50Z</time>
      </trkpt>
      <trkpt lat="49.970400" lon="8.097930">
        <time>2010-03-14T14:09:58Z</time>
      </trkpt>
      <trkpt lat="49.970310" lon="8.097910">
        <time>2010-03-14T14:10:02Z</time>
      </trkpt>
      <trkpt lat="49.970260" lon="8.097930">
        <time>2010-03-14T14:10:06Z</time>
      </trkpt>
      <trkpt lat="49.970210" lon="8.097950">
        <time>2010-03-14T14:10:14Z</time>
      </trkpt>
      <trkpt lat="49.970160" lon="8.097970">
        <time>2010-03-14T14:10:16Z</time>
      </trkpt>
      <trkpt lat="49.970140" lon="8.097970">
        <time>2010-03-14T14:10:18Z</time>
      </trkpt>
      <trkpt lat="49.970010" lon="8.098010">
        <time>2010-03-14T14:10:28Z</time>
      </trkpt>
      <trkpt lat="49.969960" lon="8.098010">
        <time>2010-03-14T14:10:36Z</time>
      </trkpt>
      <trkpt lat="49.969820" lon="8.098030">
        <time>2010-03-14T14:10:40Z</time>
      </trkpt>
      <trkpt lat="49.969720" lon="8.098060">
        <time>2010-03-14T14:10:48Z</time>
      </trkpt>
      <trkpt lat="49.969610" lon="8.098080">
        <time>2010-03-14T14:11:00Z</time>
      </trkpt>
      <trkpt lat="49.969510" lon="8.098140">
        <time>2010-03-14T14:11:04Z</time>
      </trkpt>
      <trkpt lat="49.969430" lon="8.098140">
        <time>2010-03-14T14:11:08Z</time>
      </trkpt>
      <trkpt lat="49.969260" lon="8.098120">
        <time>2010-03-14T14:11:20Z</time>
      </trkpt>
      <trkpt lat="49.969140" lon="8.098140">
        <time>2010-03-14T14:11:28Z</time>
      </trkpt>
      <trkpt lat="49.968740" lon="8.098230">
        <time>2010-03-14T14:11:58Z</time>
      </trkpt>
      <trkpt lat="49.968510" lon="8.098270">
        <time>2010-03-14T14:12:14Z</time>
      </trkpt>
      <trkpt lat="49.968300" lon="8.098310">
        <time>2010-03-14T14:12:30Z</time>
      </trkpt>
      <trkpt lat="49.968060" lon="8.098340">
        <time>2010-03-14T14:12:50Z</time>
      </trkpt>
      <trkpt lat="49.967950" lon="8.098380">
        <time>2010-03-14T14:12:58Z</time>
      </trkpt>
      <trkpt lat="49.967760" lon="8.098420">
        <time>2010-03-14T14:13:12Z</time>
      </trkpt>
      <trkpt lat="49.967560" lon="8.098490">
        <time>2010-03-14T14:13:28Z</time>
      </trkpt>
      <trkpt lat="49.967470" lon="8.098490">
        <time>2010-03-14T14:13:36Z</time>
      </trkpt>
      <trkpt lat="49.967250" lon="8.098530">
        <time>2010-03-14T14:13:52Z</time>
      </trkpt>
      <trkpt lat="49.966980" lon="8.098550">
        <time>2010-03-14T14:14:12Z</time>
      </trkpt>
      <trkpt lat="49.966930" lon="8.098550">
        <time>2010-03-14T14:14:14Z</time>
      </trkpt>
      <trkpt lat="49.966800" lon="8.098590">
        <time>2010-03-14T14:14:24Z</time>
      </trkpt>
      <trkpt lat="49.966800" lon="8.098590">
        <time>2010-03-14T14:14:28Z</time>
      </trkpt>
      <trkpt lat="49.966800" lon="8.098590">
        <time>2010-03-14T14:14:30Z</time>
      </trkpt>
      <trkpt lat="49.966800" lon="8.098590">
        <time>2010-03-14T14:14:32Z</time>
      </trkpt>
      <trkpt lat="49.966760" lon="8.098590">
        <time>2010-03-14T14:14:34Z</time>
      </trkpt>
      <trkpt lat="49.966730" lon="8.098590">
        <time>2010-03-14T14:14:36Z</time>
      </trkpt>
      <trkpt lat="49.966630" lon="8.098590">
        <time>2010-03-14T14:14:42Z</time>
      </trkpt>
      <trkpt lat="49.966530" lon="8.098640">
        <time>2010-03-14T14:14:48Z</time>
      </trkpt>
      <trkpt lat="49.966310" lon="8.098740">
        <time>2010-03-14T14:15:04Z</time>
      </trkpt>
      <trkpt lat="49.966210" lon="8.098850">
        <time>2010-03-14T14:15:12Z</time>
      </trkpt>
      <trkpt lat="49.966060" lon="8.098980">
        <time>2010-03-14T14:15:26Z</time>
      </trkpt>
      <trkpt lat="49.965950" lon="8.099020">
        <time>2010-03-14T14:15:34Z</time>
      </trkpt>
      <trkpt lat="49.965740" lon="8.099060">
        <time>2010-03-14T14:15:46Z</time>
      </trkpt>
      <trkpt lat="49.965630" lon="8.099130">
        <time>2010-03-14T14:15:56Z</time>
      </trkpt>
      <trkpt lat="49.965500" lon="8.099170">
        <time>2010-03-14T14:16:06Z</time>
      </trkpt>
      <trkpt lat="49.965150" lon="8.099320">
        <time>2010-03-14T14:16:36Z</time>
      </trkpt>
      <trkpt lat="49.964850" lon="8.099490">
        <time>2010-03-14T14:17:02Z</time>
      </trkpt>
      <trkpt lat="49.964790" lon="8.099490">
        <time>2010-03-14T14:17:06Z</time>
      </trkpt>
      <trkpt lat="49.964650" lon="8.099540">
        <time>2010-03-14T14:17:14Z</time>
      </trkpt>
      <trkpt lat="49.964540" lon="8.099600">
        <time>2010-03-14T14:17:24Z</time>
      </trkpt>
      <trkpt lat="49.964400" lon="8.099640">
        <time>2010-03-14T14:17:36Z</time>
      </trkpt>
      <trkpt lat="49.964360" lon="8.099640">
        <time>2010-03-14T14:17:38Z</time>
      </trkpt>
      <trkpt lat="49.964240" lon="8.099690">
        <time>2010-03-14T14:17:48Z</time>
      </trkpt>
      <trkpt lat="49.964110" lon="8.099750">
        <time>2010-03-14T14:18:02Z</time>
      </trkpt>
      <trkpt lat="49.964020" lon="8.099820">
        <time>2010-03-14T14:18:08Z</time>
      </trkpt>
      <trkpt lat="49.963890" lon="8.099880">
        <time>2010-03-14T14:18:20Z</time>
      </trkpt>
      <trkpt lat="49.963700" lon="8.099970">
        <time>2010-03-14T14:18:36Z</time>
      </trkpt>
      <trkpt lat="49.963520" lon="8.100070">
        <time>2010-03-14T14:18:48Z</time>
      </trkpt>
      <trkpt lat="49.963350" lon="8.100200">
        <time>2010-03-14T14:19:02Z</time>
      </trkpt>
      <trkpt lat="49.963230" lon="8.100240">
        <time>2010-03-14T14:19:10Z</time>
      </trkpt>
      <trkpt lat="49.963000" lon="8.100350">
        <time>2010-03-14T14:19:28Z</time>
      </trkpt>
      <trkpt lat="49.962930" lon="8.100350">
        <time>2010-03-14T14:19:34Z</time>
      </trkpt>
      <trkpt lat="49.962890" lon="8.100310">
        <time>2010-03-14T14:19:42Z</time>
      </trkpt>
      <trkpt lat="49.962860" lon="8.100240">
        <time>2010-03-14T14:19:46Z</time>
      </trkpt>
      <trkpt lat="49.962800" lon="8.099970">
        <time>2010-03-14T14:20:00Z</time>
      </trkpt>
      <trkpt lat="49.962790" lon="8.099920">
        <time>2010-03-14T14:20:06Z</time>
      </trkpt>
      <trkpt lat="49.962780" lon="8.099770">
        <time>2010-03-14T14:20:10Z</time>
      </trkpt>
      <trkpt lat="49.962740" lon="8.099600">
        <time>2010-03-14T14:20:14Z</time>
      </trkpt>
      <trkpt lat="49.962660" lon="8.099390">
        <time>2010-03-14T14:20:24Z</time>
      </trkpt>
      <trkpt lat="49.962650" lon="8.099280">
        <time>2010-03-14T14:20:34Z</time>
      </trkpt>
      <trkpt lat="49.962620" lon="8.099090">
        <time>2010-03-14T14:20:38Z</time>
      </trkpt>
      <trkpt lat="49.962540" lon="8.098830">
        <time>2010-03-14T14:20:48Z</time>
      </trkpt>
      <trkpt lat="49.962490" lon="8.098640">
        <time>2010-03-14T14:21:00Z</time>
      </trkpt>
      <trkpt lat="49.962440" lon="8.098440">
        <time>2010-03-14T14:21:08Z</time>
      </trkpt>
      <trkpt lat="49.962400" lon="8.098250">
        <time>2010-03-14T14:21:20Z</time>
      </trkpt>
      <trkpt lat="49.962350" lon="8.097990">
        <time>2010-03-14T14:21:34Z</time>
      </trkpt>
      <trkpt lat="49.962270" lon="8.097670">
        <time>2010-03-14T14:21:50Z</time>
      </trkpt>
      <trkpt lat="49.962230" lon="8.097280">
        <time>2010-03-14T14:22:08Z</time>
      </trkpt>
      <trkpt lat="49.962180" lon="8.096400">
        <time>2010-03-14T14:22:52Z</time>
      </trkpt>
      <trkpt lat="49.962170" lon="8.096040">
        <time>2010-03-14T14:23:08Z</time>
      </trkpt>
      <trkpt lat="49.962160" lon="8.095720">
        <time>2010-03-14T14:23:24Z</time>
      </trkpt>
      <trkpt lat="49.962110" lon="8.095310">
        <time>2010-03-14T14:23:42Z</time>
      </trkpt>
      <trkpt lat="49.962050" lon="8.095010">
        <time>2010-03-14T14:23:58Z</time>
      </trkpt>
      <trkpt lat="49.962000" lon="8.094690">
        <time>2010-03-14T14:24:10Z</time>
      </trkpt>
      <trkpt lat="49.961960" lon="8.094470">
        <time>2010-03-14T14:24:22Z</time>
      </trkpt>
      <trkpt lat="49.961910" lon="8.094060">
        <time>2010-03-14T14:24:42Z</time>
      </trkpt>
      <trkpt lat="49.961630" lon="8.092280">
        <time>2010-03-14T14:26:10Z</time>
      </trkpt>
      <trkpt lat="49.961510" lon="8.091620">
        <time>2010-03-14T14:26:40Z</time>
      </trkpt>
      <trkpt lat="49.961440" lon="8.091320">
        <time>2010-03-14T14:26:56Z</time>
      </trkpt>
      <trkpt lat="49.961340" lon="8.090930">
        <time>2010-03-14T14:27:14Z</time>
      </trkpt>
      <trkpt lat="49.961290" lon="8.090700">
        <time>2010-03-14T14:27:28Z</time>
      </trkpt>
      <trkpt lat="49.961220" lon="8.090400">
        <time>2010-03-14T14:27:42Z</time>
      </trkpt>
      <trkpt lat="49.961190" lon="8.090270">
        <time>2010-03-14T14:27:52Z</time>
      </trkpt>
      <trkpt lat="49.961190" lon="8.090270">
        <time>2010-03-14T14:27:58Z</time>
      </trkpt>
      <trkpt lat="49.961190" lon="8.090270">
        <time>2010-03-14T14:28:00Z</time>
      </trkpt>
      <trkpt lat="49.961190" lon="8.090270">
        <time>2010-03-14T14:28:02Z</time>
      </trkpt>
      <trkpt lat="49.961170" lon="8.090200">
        <time>2010-03-14T14:28:04Z</time>
      </trkpt>
      <trkpt lat="49.961110" lon="8.090030">
        <time>2010-03-14T14:28:12Z</time>
      </trkpt>
      <trkpt lat="49.961050" lon="8.089820">
        <time>2010-03-14T14:28:24Z</time>
      </trkpt>
      <trkpt lat="49.960970" lon="8.089560">
        <time>2010-03-14T14:28:36Z</time>
      </trkpt>
      <trkpt lat="49.960890" lon="8.089300">
        <time>2010-03-14T14:28:50Z</time>
      </trkpt>
      <trkpt lat="49.960700" lon="8.088850">
        <time>2010-03-14T14:29:16Z</time>
      </trkpt>
      <trkpt lat="49.960640" lon="8.088760">
        <time>2010-03-14T14:29:26Z</time>
      </trkpt>
      <trkpt lat="49.960630" lon="8.088720">
        <time>2010-03-14T14:29:28Z</time>
      </trkpt>
      <trkpt lat="49.960580" lon="8.088440">
        <time>2010-03-14T14:29:44Z</time>
      </trkpt>
      <trkpt lat="49.960580" lon="8.088440">
        <time>2010-03-14T14:29:48Z</time>
      </trkpt>
      <trkpt lat="49.960560" lon="8.088210">
        <time>2010-03-14T14:29:52Z</time>
      </trkpt>
      <trkpt lat="49.960560" lon="8.087950">
        <time>2010-03-14T14:30:04Z</time>
      </trkpt>
      <trkpt lat="49.960500" lon="8.087480">
        <time>2010-03-14T14:30:26Z</time>
      </trkpt>
      <trkpt lat="49.960410" lon="8.087090">
        <time>2010-03-14T14:30:44Z</time>
      </trkpt>
      <trkpt lat="49.960380" lon="8.086960">
        <time>2010-03-14T14:30:54Z</time>
      </trkpt>
      <trkpt lat="49.960350" lon="8.086880">
        <time>2010-03-14T14:30:58Z</time>
      </trkpt>
      <trkpt lat="49.960270" lon="8.086360">
        <time>2010-03-14T14:31:24Z</time>
      </trkpt>
      <trkpt lat="49.960280" lon="8.086080">
        <time>2010-03-14T14:31:36Z</time>
      </trkpt>
      <trkpt lat="49.960280" lon="8.086040">
        <time>2010-03-14T14:31:42Z</time>
      </trkpt>
      <trkpt lat="49.960310" lon="8.085950">
        <time>2010-03-14T14:31:44Z</time>
      </trkpt>
      <trkpt lat="49.960340" lon="8.085890">
        <time>2010-03-14T14:31:48Z</time>
      </trkpt>
      <trkpt lat="49.960400" lon="8.085830">
        <time>2010-03-14T14:31:56Z</time>
      </trkpt>
      <trkpt lat="49.960450" lon="8.085720">
        <time>2010-03-14T14:32:00Z</time>
      </trkpt>
      <trkpt lat="49.960580" lon="8.085420">
        <time>2010-03-14T14:32:14Z</time>
      </trkpt>
      <trkpt lat="49.960740" lon="8.085140">
        <time>2010-03-14T14:32:30Z</time>
      </trkpt>
      <trkpt lat="49.960880" lon="8.084800">
        <time>2010-03-14T14:32:48Z</time>
      </trkpt>
      <trkpt lat="49.960890" lon="8.084620">
        <time>2010-03-14T14:32:58Z</time>
      </trkpt>
      <trkpt lat="49.960910" lon="8.084390">
        <time>2010-03-14T14:33:08Z</time>
      </trkpt>
      <trkpt lat="49.960900" lon="8.084130">
        <time>2010-03-14T14:33:22Z</time>
      </trkpt>
      <trkpt lat="49.960850" lon="8.083810">
        <time>2010-03-14T14:33:36Z</time>
      </trkpt>
      <trkpt lat="49.960720" lon="8.083290">
        <time>2010-03-14T14:34:00Z</time>
      </trkpt>
      <trkpt lat="49.960460" lon="8.082430">
        <time>2010-03-14T14:34:40Z</time>
      </trkpt>
      <trkpt lat="49.960410" lon="8.082310">
        <time>2010-03-14T14:34:50Z</time>
      </trkpt>
      <trkpt lat="49.960340" lon="8.082050">
        <time>2010-03-14T14:35:04Z</time>
      </trkpt>
      <trkpt lat="49.960290" lon="8.081830">
        <time>2010-03-14T14:35:12Z</time>
      </trkpt>
      <trkpt lat="49.960190" lon="8.081560">
        <time>2010-03-14T14:35:26Z</time>
      </trkpt>
      <trkpt lat="49.959640" lon="8.079820">
        <time>2010-03-14T14:36:56Z</time>
      </trkpt>
      <trkpt lat="49.959550" lon="8.079500">
        <time>2010-03-14T14:37:10Z</time>
      </trkpt>
      <trkpt lat="49.959450" lon="8.079130">
        <time>2010-03-14T14:37:28Z</time>
      </trkpt>
      <trkpt lat="49.959380" lon="8.078850">
        <time>2010-03-14T14:37:38Z</time>
      </trkpt>
      <trkpt lat="49.959300" lon="8.078570">
        <time>2010-03-14T14:37:52Z</time>
      </trkpt>
      <trkpt lat="49.959100" lon="8.077650">
        <time>2010-03-14T14:38:38Z</time>
      </trkpt>
      <trkpt lat="49.959100" lon="8.077440">
        <time>2010-03-14T14:38:50Z</time>
      </trkpt>
      <trkpt lat="49.959110" lon="8.077130">
        <time>2010-03-14T14:39:02Z</time>
      </trkpt>
      <trkpt lat="49.959170" lon="8.076710">
        <time>2010-03-14T14:39:22Z</time>
      </trkpt>
      <trkpt lat="49.959250" lon="8.076510">
        <time>2010-03-14T14:39:34Z</time>
      </trkpt>
      <trkpt lat="49.959280" lon="8.076470">
        <time>2010-03-14T14:39:36Z</time>
      </trkpt>
      <trkpt lat="49.959340" lon="8.076320">
        <time>2010-03-14T14:39:46Z</time>
      </trkpt>
      <trkpt lat="49.959370" lon="8.076210">
        <time>2010-03-14T14:39:50Z</time>
      </trkpt>
      <trkpt lat="49.959410" lon="8.075980">
        <time>2010-03-14T14:40:02Z</time>
      </trkpt>
      <trkpt lat="49.959500" lon="8.075740">
        <time>2010-03-14T14:40:12Z</time>
      </trkpt>
      <trkpt lat="49.959580" lon="8.075460">
        <time>2010-03-14T14:40:26Z</time>
      </trkpt>
      <trkpt lat="49.959660" lon="8.075030">
        <time>2010-03-14T14:40:46Z</time>
      </trkpt>
      <trkpt lat="49.959670" lon="8.074690">
        <time>2010-03-14T14:41:02Z</time>
      </trkpt>
      <trkpt lat="49.959640" lon="8.074320">
        <time>2010-03-14T14:41:18Z</time>
      </trkpt>
      <trkpt lat="49.959640" lon="8.074200">
        <time>2010-03-14T14:41:28Z</time>
      </trkpt>
      <trkpt lat="49.959620" lon="8.074150">
        <time>2010-03-14T14:41:30Z</time>
      </trkpt>
      <trkpt lat="49.959620" lon="8.073960">
        <time>2010-03-14T14:41:38Z</time>
      </trkpt>
      <trkpt lat="49.959670" lon="8.073740">
        <time>2010-03-14T14:41:50Z</time>
      </trkpt>
      <trkpt lat="49.959700" lon="8.073530">
        <time>2010-03-14T14:42:04Z</time>
      </trkpt>
      <trkpt lat="49.959700" lon="8.073470">
        <time>2010-03-14T14:42:06Z</time>
      </trkpt>
      <trkpt lat="49.959730" lon="8.073210">
        <time>2010-03-14T14:42:18Z</time>
      </trkpt>
      <trkpt lat="49.959760" lon="8.072910">
        <time>2010-03-14T14:42:34Z</time>
      </trkpt>
      <trkpt lat="49.959790" lon="8.072780">
        <time>2010-03-14T14:42:38Z</time>
      </trkpt>
      <trkpt lat="49.959840" lon="8.072590">
        <time>2010-03-14T14:42:48Z</time>
      </trkpt>
      <trkpt lat="49.960050" lon="8.071990">
        <time>2010-03-14T14:43:18Z</time>
      </trkpt>
      <trkpt lat="49.960160" lon="8.071770">
        <time>2010-03-14T14:43:32Z</time>
      </trkpt>
      <trkpt lat="49.960190" lon="8.071600">
        <time>2010-03-14T14:43:42Z</time>
      </trkpt>
      <trkpt lat="49.960250" lon="8.071360">
        <time>2010-03-14T14:43:52Z</time>
      </trkpt>
      <trkpt lat="49.960300" lon="8.071080">
        <time>2010-03-14T14:44:06Z</time>
      </trkpt>
      <trkpt lat="49.960460" lon="8.070010">
        <time>2010-03-14T14:45:00Z</time>
      </trkpt>
      <trkpt lat="49.960570" lon="8.069620">
        <time>2010-03-14T14:45:22Z</time>
      </trkpt>
      <trkpt lat="49.960650" lon="8.069470">
        <time>2010-03-14T14:45:34Z</time>
      </trkpt>
      <trkpt lat="49.960780" lon="8.069280">
        <time>2010-03-14T14:45:48Z</time>
      </trkpt>
      <trkpt lat="49.960830" lon="8.069200">
        <time>2010-03-14T14:45:58Z</time>
      </trkpt>
      <trkpt lat="49.960890" lon="8.069090">
        <time>2010-03-14T14:46:02Z</time>
      </trkpt>
      <trkpt lat="49.961010" lon="8.068810">
        <time>2010-03-14T14:46:14Z</time>
      </trkpt>
      <trkpt lat="49.961110" lon="8.068570">
        <time>2010-03-14T14:46:28Z</time>
      </trkpt>
      <trkpt lat="49.961230" lon="8.068320">
        <time>2010-03-14T14:46:42Z</time>
      </trkpt>
      <trkpt lat="49.961350" lon="8.068040">
        <time>2010-03-14T14:46:58Z</time>
      </trkpt>
      <trkpt lat="49.961460" lon="8.067710">
        <time>2010-03-14T14:47:12Z</time>
      </trkpt>
      <trkpt lat="49.961600" lon="8.067410">
        <time>2010-03-14T14:47:28Z</time>
      </trkpt>
      <trkpt lat="49.961730" lon="8.067030">
        <time>2010-03-14T14:47:46Z</time>
      </trkpt>
      <trkpt lat="49.961770" lon="8.066790">
        <time>2010-03-14T14:48:00Z</time>
      </trkpt>
      <trkpt lat="49.961780" lon="8.066580">
        <time>2010-03-14T14:48:08Z</time>
      </trkpt>
      <trkpt lat="49.961830" lon="8.066280">
        <time>2010-03-14T14:48:22Z</time>
      </trkpt>
      <trkpt lat="49.961850" lon="8.065870">
        <time>2010-03-14T14:48:38Z</time>
      </trkpt>
      <trkpt lat="49.961870" lon="8.065530">
        <time>2010-03-14T14:48:54Z</time>
      </trkpt>
      <trkpt lat="49.961880" lon="8.064950">
        <time>2010-03-14T14:49:18Z</time>
      </trkpt>
      <trkpt lat="49.961900" lon="8.064820">
        <time>2010-03-14T14:49:28Z</time>
      </trkpt>
      <trkpt lat="49.961920" lon="8.064820">
        <time>2010-03-14T14:49:32Z</time>
      </trkpt>
      <trkpt lat="49.962010" lon="8.064690">
        <time>2010-03-14T14:49:40Z</time>
      </trkpt>
      <trkpt lat="49.962010" lon="8.064690">
        <time>2010-03-14T14:49:44Z</time>
      </trkpt>
      <trkpt lat="49.962090" lon="8.064670">
        <time>2010-03-14T14:49:48Z</time>
      </trkpt>
      <trkpt lat="49.962210" lon="8.064600">
        <time>2010-03-14T14:49:58Z</time>
      </trkpt>
      <trkpt lat="49.962240" lon="8.064600">
        <time>2010-03-14T14:50:04Z</time>
      </trkpt>
      <trkpt lat="49.962370" lon="8.064540">
        <time>2010-03-14T14:50:08Z</time>
      </trkpt>
      <trkpt lat="49.962450" lon="8.064500">
        <time>2010-03-14T14:50:20Z</time>
      </trkpt>
      <trkpt lat="49.962450" lon="8.064500">
        <time>2010-03-14T14:50:24Z</time>
      </trkpt>
      <trkpt lat="49.962450" lon="8.064500">
        <time>2010-03-14T14:50:30Z</time>
      </trkpt>
      <trkpt lat="49.962690" lon="8.064350">
        <time>2010-03-14T14:50:36Z</time>
      </trkpt>
      <trkpt lat="49.962840" lon="8.064300">
        <time>2010-03-14T14:50:40Z</time>
      </trkpt>
      <trkpt lat="49.962970" lon="8.064300">
        <time>2010-03-14T14:50:46Z</time>
      </trkpt>
      <trkpt lat="49.963080" lon="8.064350">
        <time>2010-03-14T14:50:52Z</time>
      </trkpt>
      <trkpt lat="49.963170" lon="8.064520">
        <time>2010-03-14T14:51:00Z</time>
      </trkpt>
      <trkpt lat="49.963210" lon="8.064600">
        <time>2010-03-14T14:51:08Z</time>
      </trkpt>
      <trkpt lat="49.963260" lon="8.064730">
        <time>2010-03-14T14:51:12Z</time>
      </trkpt>
      <trkpt lat="49.963300" lon="8.064740">
        <time>2010-03-14T14:51:22Z</time>
      </trkpt>
      <trkpt lat="49.963300" lon="8.064740">
        <time>2010-03-14T14:51:22Z</time>
      </trkpt>
    </trkseg>
  </trk>
</gpx>
